createdAt,value
2022-11-24T00:06:54.052Z,99810.00
2022-11-24T00:11:58.091Z,99827.80
2022-11-24T00:17:02.688Z,99827.00
2022-11-24T00:22:07.450Z,99830.40
2022-11-24T00:35:41.588Z,99843.80
2022-11-24T00:40:45.240Z,99837.00
2022-11-24T00:46:41.222Z,99832.60
2022-11-24T00:51:45.424Z,99831.20
2022-11-24T00:56:49.620Z,99831.60
2022-11-24T01:01:53.712Z,99838.60
2022-11-24T01:07:02.325Z,99827.80
2022-11-24T01:12:06.632Z,99817.40
2022-11-24T01:17:10.886Z,99804.40
2022-11-24T01:22:15.327Z,99807.40
2022-11-24T01:27:45.339Z,99813.60
2022-11-24T01:32:49.305Z,99805.60
2022-11-24T01:37:53.531Z,99792.20
2022-11-24T01:42:57.696Z,99798.00
2022-11-24T01:48:06.448Z,99796.00
2022-11-24T01:53:11.692Z,99806.20
2022-11-24T01:58:26.516Z,99816.00
2022-11-24T02:03:37.581Z,99810.60
2022-11-24T02:08:48.228Z,99822.40
2022-11-24T02:13:55.910Z,99832.00
2022-11-24T02:18:59.639Z,99828.40
2022-11-24T02:32:33.833Z,99813.40
2022-11-24T02:37:37.800Z,99805.40
2022-11-24T02:43:39.512Z,99821.40
2022-11-24T02:48:43.699Z,99818.40
2022-11-24T02:53:47.529Z,99820.80
2022-11-24T02:58:51.232Z,99814.40
2022-11-24T03:03:54.963Z,99804.60
2022-11-24T03:08:59.183Z,99804.60
2022-11-24T03:14:03.127Z,99847.80
2022-11-24T03:27:36.253Z,99825.00
2022-11-24T03:32:40.420Z,99833.80
2022-11-24T03:38:36.377Z,99810.00
2022-11-24T03:43:43.826Z,99810.80
2022-11-24T03:48:48.035Z,99818.60
2022-11-24T03:53:52.049Z,99826.80
2022-11-24T03:58:56.053Z,99813.80
2022-11-24T04:04:00.237Z,99828.20
2022-11-24T04:09:04.051Z,99832.40
2022-11-24T04:14:13.357Z,99840.40
2022-11-24T04:19:18.316Z,99840.60
2022-11-24T04:24:22.628Z,99842.80
2022-11-24T04:29:26.482Z,99843.80
2022-11-24T04:34:30.758Z,99833.60
2022-11-24T04:39:38.400Z,99846.60
2022-11-24T04:44:42.257Z,99836.60
2022-11-24T04:50:11.365Z,99834.00
2022-11-24T04:55:40.940Z,99842.00
2022-11-24T05:00:45.069Z,99853.40
2022-11-24T05:05:49.156Z,99849.80
2022-11-24T05:10:52.686Z,99847.40
2022-11-24T05:15:57.067Z,99860.80
2022-11-24T05:21:02.070Z,99863.20
2022-11-24T05:26:06.494Z,99863.60
2022-11-24T05:46:12.417Z,99880.20
2022-11-24T05:51:42.413Z,99876.00
2022-11-24T05:56:46.277Z,99873.20
2022-11-24T06:01:50.304Z,99883.20
2022-11-24T06:06:53.875Z,99884.40
2022-11-24T06:11:57.400Z,99875.40
2022-11-24T06:17:01.370Z,99883.80
2022-11-24T06:22:05.351Z,99901.00
2022-11-24T06:27:09.350Z,99894.40
2022-11-24T06:32:13.202Z,99917.20
2022-11-24T06:38:08.238Z,99925.20
2022-11-24T06:43:11.950Z,99930.60
2022-11-24T06:49:31.863Z,99937.60
2022-11-24T06:54:35.877Z,99931.20
2022-11-24T07:00:08.442Z,99924.80
2022-11-24T07:05:12.841Z,99922.60
2022-11-24T07:11:16.090Z,99921.00
2022-11-24T07:16:48.816Z,99926.40
2022-11-24T07:21:53.031Z,99922.20
2022-11-24T07:26:59.255Z,99929.20
2022-11-24T07:33:06.149Z,99950.00
2022-11-24T07:39:00.193Z,99958.00
2022-11-24T07:44:45.721Z,99959.20
2022-11-24T07:50:15.411Z,99954.20
2022-11-24T07:56:15.865Z,99957.00
2022-11-24T08:01:20.403Z,99955.20
2022-11-24T08:06:28.678Z,99949.40
2022-11-24T08:11:37.116Z,99940.80
2022-11-24T08:16:42.404Z,99944.60
2022-11-24T08:21:48.290Z,99946.40
2022-11-24T08:28:09.243Z,99960.40
2022-11-24T08:40:33.803Z,99970.00
2022-11-24T08:52:45.529Z,99978.00
2022-11-24T08:58:14.277Z,99981.40
2022-11-24T09:03:17.917Z,99977.60
2022-11-24T09:09:25.699Z,99978.40
2022-11-24T09:14:33.335Z,99971.40
2022-11-24T09:19:37.096Z,99965.80
2022-11-24T09:26:06.475Z,99958.80
2022-11-24T09:39:23.943Z,99975.80
2022-11-24T09:45:08.241Z,99981.00
2022-11-24T09:58:43.151Z,99993.40
2022-11-24T10:04:44.084Z,99984.20
2022-11-24T10:10:25.496Z,99986.60
2022-11-24T10:29:41.218Z,99998.20
2022-11-24T10:34:52.129Z,99989.40
2022-11-24T10:40:57.402Z,99982.20
2022-11-24T10:46:31.540Z,99983.80
2022-11-24T10:58:45.836Z,99980.60
2022-11-24T11:03:57.009Z,99980.60
2022-11-24T11:16:40.573Z,99986.60
2022-11-24T11:21:45.591Z,99991.40
2022-11-24T11:27:25.175Z,99987.60
2022-11-24T11:39:55.964Z,99990.00
2022-11-24T11:45:22.039Z,99994.00
2022-11-24T11:51:14.893Z,99998.00
2022-11-24T11:56:37.113Z,99997.80
2022-11-24T12:02:58.464Z,99998.80
2022-11-24T12:15:18.940Z,100006.60
2022-11-24T12:20:54.475Z,99998.20
2022-11-24T12:26:41.878Z,99999.00
2022-11-24T12:32:25.523Z,100002.40
2022-11-24T12:37:29.143Z,99996.80
2022-11-24T12:43:00.824Z,100000.00
2022-11-24T12:48:47.302Z,99997.40
2022-11-24T12:55:17.746Z,100002.80
2022-11-24T13:00:35.370Z,99994.80
2022-11-24T13:06:07.229Z,99991.40
2022-11-24T13:11:23.446Z,100002.60
2022-11-24T13:16:36.106Z,100008.40
2022-11-24T13:21:43.171Z,100004.40
2022-11-24T13:26:53.973Z,100001.00
2022-11-24T13:32:07.000Z,99998.00
2022-11-24T13:37:31.784Z,99996.80
2022-11-24T13:42:58.182Z,100002.20
2022-11-24T13:48:29.858Z,100002.20
2022-11-24T13:53:49.787Z,100002.20
2022-11-24T13:59:03.034Z,100012.40
2022-11-24T14:05:24.442Z,100011.40
2022-11-24T14:10:35.961Z,100017.40
2022-11-24T14:30:18.834Z,100048.00
2022-11-24T14:42:51.825Z,100058.80
2022-11-24T14:55:17.384Z,100064.40
2022-11-24T15:07:29.648Z,100069.00
2022-11-24T15:28:03.536Z,100082.80
2022-11-24T15:33:16.998Z,100079.80
2022-11-24T15:39:43.961Z,100085.00
2022-11-24T15:44:47.603Z,100085.20
2022-11-24T16:04:33.972Z,100078.60
2022-11-24T16:09:38.418Z,100078.60
2022-11-24T16:15:33.817Z,100077.40
2022-11-24T16:20:43.648Z,100084.00
2022-11-24T16:25:47.812Z,100084.00
2022-11-24T16:31:26.131Z,100094.00
2022-11-24T16:37:53.708Z,100091.60
2022-11-24T16:50:16.733Z,100097.60
2022-11-24T16:55:20.823Z,100099.60
2022-11-24T17:00:50.720Z,100102.20
2022-11-24T17:06:01.997Z,100101.00
2022-11-24T17:11:15.186Z,100114.60
2022-11-24T17:16:22.970Z,100117.20
2022-11-24T17:21:29.356Z,100124.00
2022-11-24T17:26:35.656Z,100132.20
2022-11-24T17:31:40.724Z,100140.80
2022-11-24T17:36:46.348Z,100138.80
2022-11-24T17:41:50.299Z,100141.80
2022-11-24T17:46:54.605Z,100145.40
2022-11-24T18:00:37.575Z,100166.60
2022-11-24T18:05:43.254Z,100167.40
2022-11-24T18:15:08.423Z,100165.60
2022-11-24T18:27:40.148Z,100177.20
2022-11-24T18:32:44.121Z,100182.00
2022-11-24T18:37:48.153Z,100186.80
2022-11-24T18:42:52.447Z,100178.80
2022-11-24T18:47:56.396Z,100185.00
2022-11-24T19:07:18.750Z,100194.40
2022-11-24T19:12:24.907Z,100194.80
2022-11-24T19:18:20.547Z,100190.00
2022-11-24T19:24:41.485Z,100187.40
2022-11-24T19:29:47.406Z,100181.80
2022-11-24T19:34:55.477Z,100189.60
2022-11-24T19:39:59.515Z,100194.40
2022-11-24T19:45:29.105Z,100205.80
2022-11-24T19:50:33.288Z,100208.00
2022-11-24T19:56:10.426Z,100212.60
2022-11-24T20:01:15.724Z,100212.60
2022-11-24T20:06:20.023Z,100217.20
2022-11-24T20:12:23.721Z,100222.00
2022-11-24T20:17:30.913Z,100224.20
2022-11-24T20:22:35.822Z,100219.80
2022-11-24T20:27:39.729Z,100232.20
2022-11-24T20:33:35.466Z,100229.20
2022-11-24T20:38:41.860Z,100240.40
2022-11-24T20:43:47.507Z,100244.40
2022-11-24T20:48:53.211Z,100249.20
2022-11-24T20:54:01.068Z,100254.40
2022-11-24T20:59:05.628Z,100245.80
2022-11-24T21:04:15.503Z,100246.80
2022-11-24T21:09:20.126Z,100257.60
2022-11-24T21:14:24.879Z,100269.60
2022-11-24T21:19:29.625Z,100263.60
2022-11-24T21:24:33.748Z,100269.40
2022-11-24T21:29:37.672Z,100268.40
2022-11-24T21:34:42.107Z,100273.60
2022-11-24T21:39:46.210Z,100272.60
2022-11-24T21:44:49.965Z,100273.80
2022-11-24T21:49:53.477Z,100273.40
2022-11-24T21:54:57.096Z,100272.80
2022-11-24T22:00:00.923Z,100268.60
2022-11-24T22:05:04.912Z,100260.00
2022-11-24T22:10:09.801Z,100264.40
2022-11-24T22:15:13.427Z,100263.60
2022-11-24T22:27:06.790Z,100271.80
2022-11-24T22:33:44.068Z,100282.20
2022-11-24T22:38:52.982Z,100290.60
2022-11-24T22:43:56.545Z,100301.60
2022-11-24T22:56:17.208Z,100307.20
2022-11-24T23:01:24.433Z,100308.20
2022-11-24T23:06:52.843Z,100305.80
2022-11-24T23:11:56.548Z,100307.60
2022-11-24T23:17:03.248Z,100313.80
2022-11-24T23:22:07.056Z,100305.40
2022-11-24T23:27:10.873Z,100309.00
2022-11-24T23:32:17.456Z,100305.20
2022-11-24T23:38:11.149Z,100299.20
2022-11-24T23:43:14.689Z,100295.00
2022-11-24T23:48:18.662Z,100286.00
2022-11-24T23:53:27.501Z,100288.20
2022-11-24T23:58:32.492Z,100289.20
